createdAt,value
2019-04-26T00:01:03.979Z,6.30
2019-04-26T00:03:41.349Z,5.67
2019-04-26T00:06:12.891Z,4.20
2019-04-26T00:08:45.204Z,5.20
2019-04-26T00:11:31.749Z,5.63
2019-04-26T00:14:19.256Z,5.77
2019-04-26T00:16:58.947Z,6.93
2019-04-26T00:19:29.137Z,8.17
2019-04-26T00:21:59.519Z,6.30
2019-04-26T00:24:29.631Z,7.00
2019-04-26T00:26:59.433Z,9.03
2019-04-26T00:29:29.193Z,16.37
2019-04-26T00:31:58.954Z,7.27
2019-04-26T00:34:28.774Z,8.50
2019-04-26T00:36:58.936Z,7.00
2019-04-26T00:39:28.773Z,8.90
2019-04-26T00:41:59.143Z,9.37
2019-04-26T00:44:30.417Z,7.80
2019-04-26T00:47:02.568Z,6.97
2019-04-26T00:49:43.399Z,7.63
2019-04-26T00:52:06.409Z,12.43
2019-04-26T00:54:36.574Z,8.93
2019-04-26T00:57:07.236Z,8.90
2019-04-26T00:59:39.009Z,8.67
2019-04-26T01:02:16.593Z,9.53
2019-04-26T01:04:46.494Z,7.60
2019-04-26T01:07:16.989Z,10.40
2019-04-26T01:09:46.856Z,10.07
2019-04-26T01:12:17.731Z,10.17
2019-04-26T01:14:47.866Z,9.70
2019-04-26T01:17:18.591Z,8.70
2019-04-26T01:19:49.365Z,8.17
2019-04-26T01:22:24.133Z,9.90
2019-04-26T01:24:55.679Z,10.83
2019-04-26T01:27:28.343Z,10.57
2019-04-26T01:30:02.583Z,9.77
2019-04-26T01:32:34.129Z,10.40
2019-04-26T01:35:04.271Z,9.47
2019-04-26T01:37:34.780Z,9.80
2019-04-26T01:40:09.553Z,9.63
2019-04-26T01:42:49.894Z,8.03
2019-04-26T01:45:30.462Z,13.03
2019-04-26T01:48:05.005Z,11.60
2019-04-26T01:50:36.062Z,12.63
2019-04-26T01:53:06.704Z,10.57
2019-04-26T01:55:36.604Z,14.77
2019-04-26T01:58:07.356Z,9.40
2019-04-26T02:00:56.638Z,8.30
2019-04-26T02:03:28.401Z,8.37
2019-04-26T02:05:58.544Z,8.63
2019-04-26T02:08:28.425Z,12.67
2019-04-26T02:10:58.355Z,8.30
2019-04-26T02:13:28.894Z,10.80
2019-04-26T02:15:59.012Z,10.97
2019-04-26T02:18:29.410Z,11.30
2019-04-26T02:21:14.220Z,10.47
2019-04-26T02:23:58.076Z,9.80
2019-04-26T02:26:35.644Z,9.87
2019-04-26T02:29:09.464Z,9.17
2019-04-26T02:31:42.640Z,10.10
2019-04-26T02:34:13.355Z,9.30
2019-04-26T02:36:56.942Z,10.10
2019-04-26T02:39:22.287Z,11.10
2019-04-26T02:41:56.349Z,9.83
2019-04-26T02:44:35.019Z,8.80
2019-04-26T02:47:34.138Z,10.03
2019-04-26T02:50:05.509Z,10.07
2019-04-26T02:52:53.425Z,9.30
2019-04-26T02:56:11.510Z,8.03
2019-04-26T02:59:09.682Z,10.13
2019-04-26T03:01:40.190Z,9.53
2019-04-26T03:04:10.121Z,10.60
2019-04-26T03:06:43.166Z,8.63
2019-04-26T03:09:14.549Z,9.83
2019-04-26T03:11:48.456Z,12.80
2019-04-26T03:14:44.316Z,10.60
2019-04-26T03:17:36.411Z,11.63
2019-04-26T03:20:11.158Z,12.67
2019-04-26T03:22:48.253Z,10.33
2019-04-26T03:25:47.613Z,11.00
2019-04-26T03:28:32.745Z,10.03
2019-04-26T03:31:11.069Z,10.10
2019-04-26T03:34:22.774Z,9.77
2019-04-26T03:37:21.772Z,10.27
2019-04-26T03:40:07.361Z,10.90
2019-04-26T03:43:08.937Z,9.17
2019-04-26T03:46:01.323Z,10.60
2019-04-26T03:48:57.048Z,10.27
2019-04-26T03:51:45.060Z,9.67
2019-04-26T03:54:19.252Z,11.30
2019-04-26T03:57:07.485Z,15.97
2019-04-26T04:00:20.081Z,8.73
2019-04-26T04:03:26.768Z,9.87
2019-04-26T04:05:59.492Z,9.40
2019-04-26T04:08:38.500Z,10.57
2019-04-26T04:11:12.511Z,10.40
2019-04-26T04:14:11.678Z,8.70
2019-04-26T04:17:02.275Z,13.40
2019-04-26T04:20:06.751Z,10.53
2019-04-26T04:22:41.807Z,14.53
2019-04-26T04:25:16.234Z,14.17
2019-04-26T04:28:03.149Z,16.53
2019-04-26T04:31:11.964Z,16.73
2019-04-26T04:34:12.836Z,16.50
2019-04-26T04:36:53.285Z,18.13
2019-04-26T04:39:44.405Z,17.90
2019-04-26T04:43:09.871Z,17.27
2019-04-26T04:46:03.129Z,17.97
2019-04-26T04:49:09.733Z,21.07
2019-04-26T04:52:10.466Z,22.70
2019-04-26T04:54:44.709Z,26.03
2019-04-26T04:57:33.345Z,25.77
2019-04-26T05:00:17.617Z,25.40
2019-04-26T05:03:23.057Z,27.47
2019-04-26T05:06:20.209Z,30.73
2019-04-26T05:09:13.320Z,31.50
2019-04-26T05:12:09.416Z,22.47
2019-04-26T05:15:07.339Z,25.13
2019-04-26T05:17:53.688Z,29.83
2019-04-26T05:20:47.163Z,26.33
2019-04-26T05:23:38.675Z,27.63
2019-04-26T05:26:51.690Z,25.63
2019-04-26T05:29:54.717Z,26.53
2019-04-26T05:32:58.470Z,27.60
2019-04-26T05:36:04.108Z,17.70
2019-04-26T05:39:10.489Z,28.43
2019-04-26T05:42:12.498Z,30.80
2019-04-26T05:45:26.179Z,31.50
2019-04-26T05:48:14.277Z,30.17
2019-04-26T05:51:20.823Z,31.97
2019-04-26T05:54:54.038Z,32.30
2019-04-26T05:57:42.745Z,30.67
2019-04-26T06:00:29.313Z,33.77
2019-04-26T06:03:23.182Z,31.30
2019-04-26T06:06:26.232Z,33.70
2019-04-26T06:09:30.756Z,30.30
2019-04-26T06:12:15.198Z,34.27
2019-04-26T06:15:16.754Z,34.87
2019-04-26T06:18:32.876Z,37.20
2019-04-26T06:21:30.061Z,35.80
2019-04-26T06:24:06.132Z,34.20
2019-04-26T06:27:10.994Z,34.80
2019-04-26T06:29:54.081Z,41.13
2019-04-26T06:32:35.962Z,36.30
2019-04-26T06:35:15.183Z,41.17
2019-04-26T06:38:08.795Z,36.23
2019-04-26T06:41:02.593Z,33.90
2019-04-26T06:43:40.980Z,32.73
2019-04-26T06:46:53.320Z,33.03
2019-04-26T06:49:53.503Z,33.30
2019-04-26T06:52:26.440Z,33.90
2019-04-26T06:55:26.016Z,34.17
2019-04-26T06:58:37.093Z,34.10
2019-04-26T07:01:22.056Z,31.83
2019-04-26T07:04:32.500Z,33.00
2019-04-26T07:07:59.256Z,34.70
2019-04-26T07:11:31.248Z,33.47
2019-04-26T07:14:28.232Z,30.27
2019-04-26T07:17:04.798Z,33.47
2019-04-26T07:20:15.861Z,31.33
2019-04-26T07:23:15.104Z,35.03
2019-04-26T07:26:15.797Z,35.03
2019-04-26T07:29:05.299Z,30.23
2019-04-26T07:31:56.160Z,30.23
2019-04-26T07:34:45.364Z,28.90
2019-04-26T07:38:20.648Z,30.57
2019-04-26T07:41:34.580Z,30.23
2019-04-26T07:44:29.233Z,27.80
2019-04-26T07:47:25.858Z,25.53
2019-04-26T07:50:30.331Z,26.87
2019-04-26T07:53:11.261Z,26.17
2019-04-26T07:55:57.157Z,22.70
2019-04-26T07:58:54.430Z,22.47
2019-04-26T08:02:11.219Z,22.23
2019-04-26T08:04:47.217Z,21.63
2019-04-26T08:07:22.740Z,20.97
2019-04-26T08:10:06.301Z,20.20
2019-04-26T08:12:38.507Z,19.73
2019-04-26T08:15:43.934Z,18.17
2019-04-26T08:18:20.208Z,17.23
2019-04-26T08:21:17.356Z,19.43
2019-04-26T08:24:11.072Z,15.80
2019-04-26T08:26:43.972Z,12.37
2019-04-26T08:29:16.837Z,15.27
2019-04-26T08:31:53.405Z,12.67
2019-04-26T08:34:28.523Z,11.03
2019-04-26T08:37:06.720Z,10.13
2019-04-26T08:39:45.496Z,6.03
2019-04-26T08:42:18.045Z,7.40
2019-04-26T08:44:56.931Z,6.67
2019-04-26T08:47:53.553Z,6.90
2019-04-26T08:50:31.495Z,6.47
2019-04-26T08:53:03.804Z,8.33
2019-04-26T08:55:36.125Z,7.43
2019-04-26T08:58:10.938Z,7.10
2019-04-26T09:00:51.310Z,9.97
2019-04-26T09:03:42.441Z,6.57
2019-04-26T09:06:26.082Z,7.23
2019-04-26T09:08:58.544Z,8.03
2019-04-26T09:11:33.831Z,7.40
2019-04-26T09:14:04.567Z,6.80
2019-04-26T09:16:35.449Z,6.60
2019-04-26T09:19:05.653Z,8.37
2019-04-26T09:21:47.517Z,6.80
2019-04-26T09:24:27.688Z,10.00
2019-04-26T09:27:21.083Z,7.20
2019-04-26T09:29:56.730Z,8.60
2019-04-26T09:32:36.566Z,9.73
2019-04-26T09:35:07.138Z,10.50
2019-04-26T09:37:37.223Z,10.63
2019-04-26T09:40:10.495Z,12.97
2019-04-26T09:42:51.773Z,9.57
2019-04-26T09:45:31.564Z,8.53
2019-04-26T09:48:05.372Z,10.17
2019-04-26T09:50:41.949Z,10.30
2019-04-26T09:53:11.901Z,7.07
2019-04-26T09:55:41.707Z,7.63
2019-04-26T09:58:11.521Z,8.93
2019-04-26T10:00:44.051Z,7.53
2019-04-26T10:03:13.153Z,6.53
2019-04-26T10:05:43.001Z,5.73
2019-04-26T10:08:14.488Z,6.20
2019-04-26T10:10:44.208Z,8.00
2019-04-26T10:13:35.598Z,5.83
2019-04-26T10:16:24.829Z,6.13
2019-04-26T10:19:01.097Z,6.43
2019-04-26T10:21:31.136Z,5.73
2019-04-26T10:24:00.950Z,7.70
2019-04-26T10:26:30.700Z,6.30
2019-04-26T10:29:00.514Z,6.20
2019-04-26T10:31:30.709Z,7.63
2019-04-26T10:34:00.465Z,7.50
2019-04-26T10:36:31.479Z,6.67
2019-04-26T10:39:01.383Z,5.77
2019-04-26T10:41:33.036Z,6.70
2019-04-26T10:44:03.252Z,5.27
2019-04-26T10:46:32.980Z,5.47
2019-04-26T10:49:12.095Z,4.90
2019-04-26T10:51:43.008Z,5.83
2019-04-26T10:54:17.410Z,7.33
2019-04-26T10:56:55.260Z,4.97
2019-04-26T10:59:39.971Z,5.73
2019-04-26T11:02:11.859Z,5.73
2019-04-26T11:04:42.854Z,6.73
2019-04-26T11:07:12.992Z,4.60
2019-04-26T11:09:43.215Z,5.17
2019-04-26T11:12:15.849Z,5.33
2019-04-26T11:14:45.734Z,5.00
2019-04-26T11:17:17.730Z,7.27
2019-04-26T11:19:48.057Z,6.57
2019-04-26T11:22:28.576Z,6.30
2019-04-26T11:24:50.143Z,5.30
2019-04-26T11:27:20.907Z,5.57
2019-04-26T11:29:53.921Z,5.03
2019-04-26T11:32:22.113Z,6.07
2019-04-26T11:34:54.528Z,5.80
2019-04-26T11:37:23.633Z,5.43
2019-04-26T11:39:53.387Z,5.87
2019-04-26T11:42:23.187Z,6.70
2019-04-26T11:44:52.913Z,6.20
2019-04-26T11:47:22.635Z,5.50
2019-04-26T11:49:53.511Z,6.67
2019-04-26T11:52:23.371Z,6.47
2019-04-26T11:54:55.132Z,6.53
2019-04-26T11:57:24.626Z,4.20
2019-04-26T11:59:54.439Z,6.07
2019-04-26T12:02:24.271Z,4.03
2019-04-26T12:05:15.331Z,6.33
2019-04-26T12:07:55.050Z,4.43
2019-04-26T12:10:27.168Z,5.93
2019-04-26T12:13:05.618Z,5.23
2019-04-26T12:15:30.367Z,4.87
2019-04-26T12:18:01.128Z,4.23
2019-04-26T12:20:30.915Z,5.27
2019-04-26T12:23:00.646Z,3.93
2019-04-26T12:25:31.178Z,4.37
2019-04-26T12:28:02.030Z,6.87
2019-04-26T12:30:33.708Z,3.53
2019-04-26T12:33:03.437Z,3.50
2019-04-26T12:35:33.354Z,3.47
2019-04-26T12:38:03.241Z,4.40
2019-04-26T12:40:33.316Z,5.03
2019-04-26T12:43:03.132Z,3.73
2019-04-26T12:45:47.339Z,5.43
2019-04-26T12:48:19.211Z,5.40
2019-04-26T12:50:49.747Z,4.67
2019-04-26T12:53:19.481Z,4.10
2019-04-26T12:55:53.063Z,5.00
2019-04-26T12:58:20.648Z,3.40
2019-04-26T13:00:54.207Z,3.53
2019-04-26T13:03:25.055Z,4.23
2019-04-26T13:05:57.703Z,4.37
2019-04-26T13:08:25.297Z,6.50
2019-04-26T13:11:14.918Z,3.07
2019-04-26T13:13:50.977Z,3.40
2019-04-26T13:16:27.837Z,3.80
2019-04-26T13:18:58.070Z,4.70
2019-04-26T13:21:27.905Z,3.37
2019-04-26T13:24:00.299Z,3.57
2019-04-26T13:26:30.311Z,4.17
2019-04-26T13:29:00.649Z,5.23
2019-04-26T13:31:31.767Z,4.27
2019-04-26T13:34:02.841Z,2.40
2019-04-26T13:36:34.806Z,4.03
2019-04-26T13:39:09.238Z,5.70
2019-04-26T13:41:40.230Z,3.70
2019-04-26T13:44:10.920Z,3.50
2019-04-26T13:46:53.064Z,4.50
2019-04-26T13:49:36.156Z,3.30
2019-04-26T13:52:06.405Z,3.90
2019-04-26T13:54:36.172Z,5.43
2019-04-26T13:57:09.703Z,3.97
2019-04-26T13:59:37.733Z,4.47
2019-04-26T14:02:11.608Z,3.60
2019-04-26T14:04:41.086Z,4.57
2019-04-26T14:07:10.749Z,4.10
2019-04-26T14:09:41.232Z,4.87
2019-04-26T14:12:18.852Z,4.67
2019-04-26T14:14:42.563Z,5.30
2019-04-26T14:17:12.312Z,5.27
2019-04-26T14:19:45.375Z,5.73
2019-04-26T14:22:15.536Z,7.10
2019-04-26T14:24:53.031Z,5.83
2019-04-26T14:27:27.017Z,6.90
2019-04-26T14:29:56.751Z,6.17
2019-04-26T14:32:26.863Z,6.50
2019-04-26T14:34:56.900Z,5.37
2019-04-26T14:37:26.827Z,5.87
2019-04-26T14:39:59.222Z,6.20
2019-04-26T14:42:34.241Z,8.80
2019-04-26T14:45:02.238Z,7.43
2019-04-26T14:47:32.008Z,7.77
2019-04-26T14:50:13.389Z,9.70
2019-04-26T14:52:33.327Z,11.50
2019-04-26T14:55:05.929Z,9.70
2019-04-26T14:57:34.757Z,9.60
2019-04-26T15:00:06.923Z,11.87
2019-04-26T15:03:03.284Z,10.60
2019-04-26T15:05:51.320Z,12.63
2019-04-26T15:08:22.521Z,12.17
2019-04-26T15:10:57.673Z,12.70
2019-04-26T15:13:24.039Z,10.50
2019-04-26T15:15:53.766Z,12.60
2019-04-26T15:18:23.537Z,11.63
2019-04-26T15:20:56.951Z,10.77
2019-04-26T15:23:26.505Z,11.10
2019-04-26T15:25:58.519Z,10.70
2019-04-26T15:28:27.744Z,10.77
2019-04-26T15:30:57.640Z,10.33
2019-04-26T15:33:27.543Z,11.23
2019-04-26T15:35:58.079Z,11.40
2019-04-26T15:38:27.986Z,8.93
2019-04-26T15:41:11.600Z,8.90
2019-04-26T15:43:46.784Z,8.47
2019-04-26T15:46:24.939Z,13.20
2019-04-26T15:49:09.555Z,8.53
2019-04-26T15:51:39.519Z,8.73
2019-04-26T15:54:09.641Z,8.50
2019-04-26T15:56:39.445Z,8.17
2019-04-26T15:59:09.226Z,8.50
2019-04-26T16:01:41.821Z,8.33
2019-04-26T16:04:13.338Z,9.40
2019-04-26T16:06:44.968Z,9.50
2019-04-26T16:09:19.637Z,11.90
2019-04-26T16:11:49.477Z,10.60
2019-04-26T16:14:16.475Z,13.23
2019-04-26T16:16:46.233Z,14.20
2019-04-26T16:19:16.036Z,12.07
2019-04-26T16:21:48.251Z,11.60
2019-04-26T16:24:17.305Z,13.07
2019-04-26T16:26:54.050Z,13.33
2019-04-26T16:29:38.660Z,11.60
2019-04-26T16:32:27.902Z,12.77
2019-04-26T16:34:57.659Z,12.17
2019-04-26T16:37:28.321Z,12.40
2019-04-26T16:39:58.079Z,11.83
2019-04-26T16:42:28.009Z,10.67
2019-04-26T16:45:04.008Z,11.87
2019-04-26T16:47:29.737Z,12.07
2019-04-26T16:50:02.052Z,11.17
2019-04-26T16:52:33.712Z,9.53
2019-04-26T16:55:04.348Z,9.93
2019-04-26T16:57:34.431Z,8.87
2019-04-26T17:00:05.158Z,9.10
2019-04-26T17:02:37.019Z,10.33
2019-04-26T17:05:19.146Z,7.37
2019-04-26T17:07:39.582Z,6.67
2019-04-26T17:10:09.836Z,6.13
2019-04-26T17:12:39.932Z,5.63
2019-04-26T17:15:10.175Z,6.30
2019-04-26T17:17:41.240Z,4.60
2019-04-26T17:20:12.003Z,4.30
2019-04-26T17:23:00.804Z,4.93
2019-04-26T17:25:59.035Z,5.13
2019-04-26T17:28:29.056Z,7.33
2019-04-26T17:30:59.030Z,5.27
2019-04-26T17:33:29.215Z,12.00
2019-04-26T17:35:59.548Z,6.17
2019-04-26T17:38:31.164Z,4.03
2019-04-26T17:41:01.219Z,6.13
2019-04-26T17:43:30.957Z,4.43
2019-04-26T17:46:01.182Z,7.43
2019-04-26T17:48:33.607Z,4.00
2019-04-26T17:51:02.660Z,4.87
2019-04-26T17:53:33.727Z,5.97
2019-04-26T17:56:03.748Z,4.03
2019-04-26T17:58:38.671Z,5.00
2019-04-26T18:01:05.568Z,4.13
2019-04-26T18:03:36.516Z,5.83
2019-04-26T18:06:09.491Z,6.07
2019-04-26T18:08:45.394Z,6.43
2019-04-26T18:11:18.985Z,6.47
2019-04-26T18:13:41.652Z,3.93
2019-04-26T18:16:11.467Z,5.37
2019-04-26T18:18:59.075Z,4.87
2019-04-26T18:21:41.111Z,6.00
2019-04-26T18:24:10.913Z,6.60
2019-04-26T18:26:41.188Z,7.20
2019-04-26T18:29:13.141Z,9.10
2019-04-26T18:31:43.818Z,8.57
2019-04-26T18:34:13.895Z,8.13
2019-04-26T18:36:43.783Z,9.53
2019-04-26T18:39:13.511Z,9.53
2019-04-26T18:41:43.523Z,10.00
2019-04-26T18:44:13.803Z,15.27
2019-04-26T18:46:54.875Z,18.93
2019-04-26T18:49:26.948Z,19.97
2019-04-26T18:51:56.263Z,18.47
2019-04-26T18:54:47.942Z,19.47
2019-04-26T18:57:17.235Z,22.00
2019-04-26T18:59:51.164Z,22.67
2019-04-26T19:02:20.528Z,25.47
2019-04-26T19:04:50.298Z,22.97
2019-04-26T19:07:31.497Z,26.43
2019-04-26T19:10:04.648Z,28.17
2019-04-26T19:12:26.935Z,27.47
2019-04-26T19:15:07.827Z,27.93
2019-04-26T19:17:43.514Z,31.20
2019-04-26T19:20:33.877Z,32.37
2019-04-26T19:23:05.457Z,34.93
2019-04-26T19:25:40.555Z,35.30
2019-04-26T19:28:08.308Z,38.57
2019-04-26T19:30:39.957Z,38.10
2019-04-26T19:33:16.598Z,37.43
2019-04-26T19:35:44.092Z,41.57
2019-04-26T19:38:14.750Z,42.07
2019-04-26T19:40:47.839Z,43.40
2019-04-26T19:43:28.127Z,45.27
2019-04-26T19:46:01.698Z,44.10
2019-04-26T19:48:55.291Z,42.20
2019-04-26T19:51:38.471Z,42.03
2019-04-26T19:54:14.792Z,44.83
2019-04-26T19:56:51.218Z,43.17
2019-04-26T19:59:21.925Z,43.87
2019-04-26T20:01:55.236Z,43.10
2019-04-26T20:04:30.318Z,41.40
2019-04-26T20:06:55.492Z,42.13
2019-04-26T20:09:26.583Z,45.83
2019-04-26T20:11:58.105Z,41.57
2019-04-26T20:14:39.822Z,39.97
2019-04-26T20:17:01.659Z,42.63
2019-04-26T20:19:36.839Z,43.03
2019-04-26T20:22:03.624Z,43.97
2019-04-26T20:24:33.891Z,47.67
2019-04-26T20:27:03.751Z,45.20
2019-04-26T20:29:33.806Z,50.47
2019-04-26T20:32:23.977Z,50.17
2019-04-26T20:35:06.916Z,51.13
2019-04-26T20:37:37.054Z,49.80
2019-04-26T20:40:18.462Z,51.53
2019-04-26T20:42:39.276Z,52.57
2019-04-26T20:45:13.526Z,54.23
2019-04-26T20:47:41.832Z,55.17
2019-04-26T20:50:13.937Z,53.00
2019-04-26T20:52:45.325Z,56.47
2019-04-26T20:55:15.496Z,55.13
2019-04-26T20:57:45.612Z,57.10
2019-04-26T21:00:16.027Z,58.47
2019-04-26T21:02:46.243Z,56.47
2019-04-26T21:05:16.080Z,56.60
2019-04-26T21:07:49.964Z,62.47
2019-04-26T21:10:21.776Z,57.67
2019-04-26T21:12:52.275Z,60.30
2019-04-26T21:15:24.011Z,64.77
2019-04-26T21:17:52.493Z,60.50
2019-04-26T21:20:23.328Z,61.13
2019-04-26T21:22:53.125Z,58.73
2019-04-26T21:25:35.355Z,58.87
2019-04-26T21:28:13.503Z,57.20
2019-04-26T21:31:17.683Z,61.70
2019-04-26T21:34:12.493Z,60.00
2019-04-26T21:36:59.126Z,57.00
2019-04-26T21:39:35.289Z,55.70
2019-04-26T21:42:05.901Z,61.47
2019-04-26T21:44:35.654Z,58.67
2019-04-26T21:47:05.468Z,59.87
2019-04-26T21:49:37.994Z,60.30
2019-04-26T21:52:07.752Z,62.60
2019-04-26T21:54:38.520Z,63.93
2019-04-26T21:57:08.423Z,61.73
2019-04-26T21:59:40.840Z,62.80
2019-04-26T22:02:10.356Z,60.90
2019-04-26T22:04:40.545Z,60.90
2019-04-26T22:07:10.604Z,58.13
2019-04-26T22:10:05.279Z,63.73
2019-04-26T22:12:35.423Z,63.60
2019-04-26T22:15:35.875Z,59.97
2019-04-26T22:18:14.278Z,61.17
2019-04-26T22:20:51.015Z,60.53
2019-04-26T22:23:47.676Z,55.80
2019-04-26T22:26:16.664Z,60.63
2019-04-26T22:28:46.903Z,53.93
2019-04-26T22:31:17.864Z,61.03
2019-04-26T22:33:47.916Z,58.53
2019-04-26T22:36:17.707Z,59.00
2019-04-26T22:38:47.508Z,57.43
2019-04-26T22:41:17.259Z,57.90
2019-04-26T22:43:54.028Z,57.27
2019-04-26T22:46:48.781Z,55.47
2019-04-26T22:49:16.489Z,55.70
2019-04-26T22:51:46.228Z,52.90
2019-04-26T22:54:17.376Z,54.13
2019-04-26T22:56:47.103Z,53.70
2019-04-26T22:59:16.862Z,54.70
2019-04-26T23:01:48.749Z,53.93
2019-04-26T23:04:23.610Z,52.93
2019-04-26T23:06:49.965Z,51.40
2019-04-26T23:09:20.712Z,53.50
2019-04-26T23:11:57.644Z,55.47
2019-04-26T23:14:34.644Z,50.47
2019-04-26T23:17:31.296Z,50.53
2019-04-26T23:20:14.014Z,53.67
2019-04-26T23:22:44.814Z,56.13
2019-04-26T23:25:15.027Z,53.50
2019-04-26T23:27:45.069Z,55.13
2019-04-26T23:30:16.712Z,54.07
2019-04-26T23:32:48.465Z,54.63
2019-04-26T23:35:18.600Z,52.43
2019-04-26T23:37:48.668Z,55.17
2019-04-26T23:40:20.747Z,54.50
2019-04-26T23:42:51.587Z,58.17
2019-04-26T23:45:23.121Z,53.57
2019-04-26T23:47:53.209Z,58.03
2019-04-26T23:50:25.536Z,54.47
2019-04-26T23:52:54.513Z,55.90
2019-04-26T23:55:24.666Z,56.03
2019-04-26T23:57:54.434Z,55.63
